createdAt,value
2022-11-09T00:00:10.710Z,1005.16
2022-11-09T00:01:10.727Z,1005.13
2022-11-09T00:02:10.703Z,1005.11
2022-11-09T00:03:10.684Z,1005.15
2022-11-09T00:04:10.683Z,1005.11
2022-11-09T00:05:10.675Z,1005.13
2022-11-09T00:06:10.681Z,1005.10
2022-11-09T00:07:10.697Z,1005.05
2022-11-09T00:08:10.647Z,1005.02
2022-11-09T00:09:10.618Z,1005.08
2022-11-09T00:10:10.671Z,1005.07
2022-11-09T00:11:10.630Z,1005.07
2022-11-09T00:12:10.585Z,1005.04
2022-11-09T00:13:10.589Z,1005.04
2022-11-09T00:14:10.572Z,1005.06
2022-11-09T00:15:10.551Z,1005.06
2022-11-09T00:16:10.584Z,1005.03
2022-11-09T00:17:10.524Z,1005.06
2022-11-09T00:18:10.522Z,1005.06
2022-11-09T00:19:10.501Z,1005.05
2022-11-09T00:20:10.497Z,1005.05
2022-11-09T00:21:10.532Z,1005.01
2022-11-09T00:22:10.480Z,1005.03
2022-11-09T00:23:10.459Z,1005.06
2022-11-09T00:24:10.449Z,1005.08
2022-11-09T00:25:10.452Z,1005.06
2022-11-09T00:26:10.418Z,1005.03
2022-11-09T00:27:15.163Z,1005.08
2022-11-09T00:28:11.401Z,1005.07
2022-11-09T00:29:10.398Z,1005.08
2022-11-09T00:30:10.367Z,1005.05
2022-11-09T00:31:10.379Z,1005.09
2022-11-09T00:32:10.382Z,1005.09
2022-11-09T00:33:10.342Z,1005.10
2022-11-09T00:34:10.343Z,1005.08
2022-11-09T00:35:10.321Z,1005.09
2022-11-09T00:36:10.317Z,1005.12
2022-11-09T00:37:10.321Z,1005.13
2022-11-09T00:38:10.337Z,1005.10
2022-11-09T00:39:10.294Z,1005.10
2022-11-09T00:40:10.259Z,1005.08
2022-11-09T00:41:10.294Z,1005.10
2022-11-09T00:42:10.281Z,1005.08
2022-11-09T00:43:10.247Z,1005.11
2022-11-09T00:44:10.227Z,1005.12
2022-11-09T00:45:10.202Z,1005.08
2022-11-09T00:46:10.202Z,1005.07
2022-11-09T00:47:10.219Z,1005.05
2022-11-09T00:48:10.186Z,1005.08
2022-11-09T00:49:10.184Z,1005.10
2022-11-09T00:50:10.161Z,1005.14
2022-11-09T00:51:10.171Z,1005.14
2022-11-09T00:52:10.133Z,1005.14
2022-11-09T00:53:10.139Z,1005.14
2022-11-09T00:54:10.117Z,1005.15
2022-11-09T00:55:10.097Z,1005.15
2022-11-09T00:56:10.124Z,1005.15
2022-11-09T00:57:10.084Z,1005.12
2022-11-09T00:58:10.064Z,1005.15
2022-11-09T00:59:10.062Z,1005.09
2022-11-09T01:00:10.040Z,1005.14
2022-11-09T01:01:10.174Z,1005.11
2022-11-09T01:02:10.023Z,1005.08
2022-11-09T01:03:09.993Z,1005.11
2022-11-09T01:04:10.001Z,1005.07
2022-11-09T01:05:09.977Z,1005.03
2022-11-09T01:06:09.979Z,1005.05
2022-11-09T01:07:10.069Z,1005.06
2022-11-09T01:08:09.950Z,1005.04
2022-11-09T01:09:09.945Z,1005.03
2022-11-09T01:10:09.925Z,1005.05
2022-11-09T01:11:09.926Z,1005.00
2022-11-09T01:12:09.938Z,1004.99
2022-11-09T01:13:09.885Z,1004.97
2022-11-09T01:14:09.863Z,1005.03
2022-11-09T01:15:09.851Z,1005.01
2022-11-09T01:16:09.847Z,1005.00
2022-11-09T01:17:09.887Z,1005.01
2022-11-09T01:18:09.838Z,1005.01
2022-11-09T01:19:09.821Z,1005.03
2022-11-09T01:20:09.812Z,1005.07
2022-11-09T01:21:09.793Z,1005.05
2022-11-09T01:22:09.829Z,1005.06
2022-11-09T01:23:09.784Z,1005.05
2022-11-09T01:24:09.775Z,1005.07
2022-11-09T01:25:09.760Z,1005.05
2022-11-09T01:26:09.763Z,1005.08
2022-11-09T01:27:09.771Z,1005.08
2022-11-09T01:28:09.722Z,1005.10
2022-11-09T01:29:09.725Z,1005.11
2022-11-09T01:30:09.704Z,1005.07
2022-11-09T01:31:09.680Z,1005.11
2022-11-09T01:32:09.698Z,1005.09
2022-11-09T01:33:09.664Z,1005.12
2022-11-09T01:34:09.672Z,1005.08
2022-11-09T01:35:09.649Z,1005.13
2022-11-09T01:36:09.647Z,1005.06
2022-11-09T01:37:09.673Z,1005.17
2022-11-09T01:38:09.593Z,1005.01
2022-11-09T01:39:09.597Z,1005.04
2022-11-09T01:40:09.579Z,1005.05
2022-11-09T01:41:09.585Z,1005.07
2022-11-09T01:42:09.613Z,1005.05
2022-11-09T01:43:09.573Z,1005.01
2022-11-09T01:44:09.547Z,1005.04
2022-11-09T01:45:09.522Z,1005.02
2022-11-09T01:46:09.520Z,1005.03
2022-11-09T01:47:09.542Z,1005.04
2022-11-09T01:48:09.499Z,1005.02
2022-11-09T01:49:09.489Z,1005.05
2022-11-09T01:50:09.482Z,1005.05
2022-11-09T01:51:09.452Z,1005.03
2022-11-09T01:52:09.468Z,1005.01
2022-11-09T01:53:09.434Z,1005.02
2022-11-09T01:54:09.413Z,1005.04
2022-11-09T01:55:09.418Z,1005.11
2022-11-09T01:56:09.408Z,1005.11
2022-11-09T01:57:09.425Z,1005.07
2022-11-09T01:58:09.387Z,1005.08
2022-11-09T01:59:09.386Z,1005.04
2022-11-09T02:00:09.360Z,1005.03
2022-11-09T02:01:09.470Z,1004.99
2022-11-09T02:02:09.366Z,1005.02
2022-11-09T02:03:09.333Z,1004.97
2022-11-09T02:04:09.323Z,1005.01
2022-11-09T02:05:09.303Z,1004.99
2022-11-09T02:06:09.278Z,1004.98
2022-11-09T02:07:09.345Z,1005.01
2022-11-09T02:08:09.280Z,1005.05
2022-11-09T02:09:09.262Z,1005.04
2022-11-09T02:10:09.232Z,1005.04
2022-11-09T02:11:09.238Z,1005.03
2022-11-09T02:12:09.285Z,1005.04
2022-11-09T02:13:09.223Z,1005.03
2022-11-09T02:14:09.214Z,1005.02
2022-11-09T02:15:09.210Z,1005.00
2022-11-09T02:16:09.191Z,1005.02
2022-11-09T02:17:09.163Z,1005.02
2022-11-09T02:18:09.184Z,1005.01
2022-11-09T02:19:09.143Z,1004.98
2022-11-09T02:20:09.149Z,1004.97
2022-11-09T02:21:09.123Z,1004.95
2022-11-09T02:22:09.118Z,1004.90
2022-11-09T02:23:09.142Z,1004.91
2022-11-09T02:24:09.102Z,1004.87
2022-11-09T02:25:09.089Z,1004.84
2022-11-09T02:26:09.064Z,1004.87
2022-11-09T02:27:09.073Z,1004.90
2022-11-09T02:28:09.083Z,1004.86
2022-11-09T02:29:09.031Z,1004.87
2022-11-09T02:30:09.007Z,1004.89
2022-11-09T02:31:09.003Z,1004.85
2022-11-09T02:32:08.985Z,1004.88
2022-11-09T02:33:09.024Z,1004.86
2022-11-09T02:34:08.981Z,1004.88
2022-11-09T02:35:08.973Z,1004.86
2022-11-09T02:36:08.960Z,1004.86
2022-11-09T02:37:08.941Z,1004.83
2022-11-09T02:38:08.973Z,1004.84
2022-11-09T02:39:08.922Z,1004.85
2022-11-09T02:40:08.924Z,1004.81
2022-11-09T02:41:08.910Z,1004.78
2022-11-09T02:42:10.644Z,1004.77
2022-11-09T02:43:08.901Z,1004.77
2022-11-09T02:44:08.852Z,1004.72
2022-11-09T02:45:08.865Z,1004.80
2022-11-09T02:46:08.837Z,1004.80
2022-11-09T02:47:08.843Z,1004.80
2022-11-09T02:48:08.856Z,1004.85
2022-11-09T02:49:08.800Z,1004.81
2022-11-09T02:50:08.799Z,1004.83
2022-11-09T02:51:08.776Z,1004.79
2022-11-09T02:52:08.768Z,1004.80
2022-11-09T02:53:08.801Z,1004.82
2022-11-09T02:54:08.785Z,1004.82
2022-11-09T02:55:08.748Z,1004.87
2022-11-09T02:56:08.730Z,1004.88
2022-11-09T02:57:08.748Z,1004.85
2022-11-09T02:58:08.744Z,1004.82
2022-11-09T02:59:08.702Z,1004.83
2022-11-09T03:00:08.681Z,1004.83
2022-11-09T03:01:08.751Z,1004.78
2022-11-09T03:02:08.648Z,1004.82
2022-11-09T03:03:08.668Z,1004.79
2022-11-09T03:04:08.688Z,1004.83
2022-11-09T03:05:08.626Z,1004.80
2022-11-09T03:06:08.623Z,1004.82
2022-11-09T03:07:08.664Z,1004.88
2022-11-09T03:08:08.581Z,1004.85
2022-11-09T03:09:08.612Z,1004.84
2022-11-09T03:10:08.565Z,1004.80
2022-11-09T03:11:08.567Z,1004.78
2022-11-09T03:12:08.563Z,1004.81
2022-11-09T03:13:08.556Z,1004.77
2022-11-09T03:14:08.562Z,1004.78
2022-11-09T03:15:08.522Z,1004.77
2022-11-09T03:16:08.491Z,1004.80
2022-11-09T03:17:08.495Z,1004.84
2022-11-09T03:18:08.473Z,1004.75
2022-11-09T03:19:08.492Z,1004.77
2022-11-09T03:20:08.459Z,1004.78
2022-11-09T03:21:08.445Z,1004.80
2022-11-09T03:22:08.438Z,1004.76
2022-11-09T03:23:08.417Z,1004.78
2022-11-09T03:24:08.455Z,1004.82
2022-11-09T03:25:08.401Z,1004.78
2022-11-09T03:26:08.412Z,1004.84
2022-11-09T03:27:08.394Z,1004.82
2022-11-09T03:28:08.377Z,1004.77
2022-11-09T03:29:08.379Z,1004.77
2022-11-09T03:30:08.339Z,1004.73
2022-11-09T03:31:08.369Z,1004.74
2022-11-09T03:32:08.317Z,1004.79
2022-11-09T03:33:08.332Z,1004.81
2022-11-09T03:34:08.337Z,1004.80
2022-11-09T03:35:08.309Z,1004.83
2022-11-09T03:36:08.282Z,1004.85
2022-11-09T03:37:08.259Z,1004.82
2022-11-09T03:38:08.282Z,1004.80
2022-11-09T03:39:08.293Z,1004.79
2022-11-09T03:40:08.224Z,1004.81
2022-11-09T03:41:08.254Z,1004.77
2022-11-09T03:42:08.214Z,1004.77
2022-11-09T03:43:08.220Z,1004.84
2022-11-09T03:44:08.240Z,1004.80
2022-11-09T03:45:08.162Z,1004.84
2022-11-09T03:46:08.144Z,1004.85
2022-11-09T03:47:08.139Z,1004.85
2022-11-09T03:48:08.129Z,1004.89
2022-11-09T03:49:08.166Z,1004.91
2022-11-09T03:50:08.113Z,1004.92
2022-11-09T03:51:08.126Z,1004.97
2022-11-09T03:52:08.098Z,1004.92
2022-11-09T03:53:08.081Z,1004.93
2022-11-09T03:54:08.113Z,1004.90
2022-11-09T03:55:08.063Z,1004.91
2022-11-09T03:56:08.063Z,1004.95
2022-11-09T03:57:08.047Z,1004.93
2022-11-09T03:58:08.045Z,1004.89
2022-11-09T03:59:08.066Z,1004.87
2022-11-09T04:00:07.998Z,1004.92
2022-11-09T04:01:07.987Z,1004.89
2022-11-09T04:02:08.065Z,1004.91
2022-11-09T04:03:08.000Z,1004.86
2022-11-09T04:04:07.999Z,1004.86
2022-11-09T04:05:07.973Z,1004.83
2022-11-09T04:06:07.943Z,1004.83
2022-11-09T04:07:08.043Z,1004.76
2022-11-09T04:08:07.916Z,1004.82
2022-11-09T04:09:07.942Z,1004.86
2022-11-09T04:10:07.896Z,1004.83
2022-11-09T04:11:07.873Z,1004.82
2022-11-09T04:12:07.890Z,1004.84
2022-11-09T04:13:07.878Z,1004.82
2022-11-09T04:14:07.908Z,1004.81
2022-11-09T04:15:07.841Z,1004.82
2022-11-09T04:16:07.819Z,1004.78
2022-11-09T04:17:07.820Z,1004.77
2022-11-09T04:18:07.800Z,1004.69
2022-11-09T04:19:07.825Z,1004.69
2022-11-09T04:20:07.788Z,1004.71
2022-11-09T04:21:07.765Z,1004.70
2022-11-09T04:22:07.763Z,1004.68
2022-11-09T04:23:07.735Z,1004.66
2022-11-09T04:24:07.757Z,1004.61
2022-11-09T04:25:07.711Z,1004.61
2022-11-09T04:26:07.701Z,1004.60
2022-11-09T04:27:07.720Z,1004.64
2022-11-09T04:28:07.694Z,1004.63
2022-11-09T04:29:07.702Z,1004.64
2022-11-09T04:30:07.660Z,1004.65
2022-11-09T04:31:07.658Z,1004.65
2022-11-09T04:32:07.651Z,1004.67
2022-11-09T04:33:07.639Z,1004.66
2022-11-09T04:34:07.621Z,1004.63
2022-11-09T04:35:07.635Z,1004.57
2022-11-09T04:36:07.608Z,1004.55
2022-11-09T04:37:07.582Z,1004.59
2022-11-09T04:38:07.589Z,1004.58
2022-11-09T04:39:07.571Z,1004.59
2022-11-09T04:40:07.590Z,1004.56
2022-11-09T04:41:07.538Z,1004.62
2022-11-09T04:42:07.555Z,1004.55
2022-11-09T04:43:07.519Z,1004.61
2022-11-09T04:44:07.503Z,1004.64
2022-11-09T04:45:07.517Z,1004.70
2022-11-09T04:46:07.489Z,1004.73
2022-11-09T04:47:07.477Z,1004.74
2022-11-09T04:48:07.473Z,1004.73
2022-11-09T04:49:07.459Z,1004.70
2022-11-09T04:50:07.489Z,1004.73
2022-11-09T04:51:07.430Z,1004.74
2022-11-09T04:52:07.429Z,1004.71
2022-11-09T04:53:07.972Z,1004.76
2022-11-09T04:54:07.407Z,1004.74
2022-11-09T04:55:07.424Z,1004.75
2022-11-09T04:56:07.380Z,1004.81
2022-11-09T04:57:07.358Z,1004.83
2022-11-09T04:58:07.366Z,1004.86
2022-11-09T04:59:07.368Z,1004.89
2022-11-09T05:00:07.375Z,1004.84
2022-11-09T05:01:07.298Z,1004.81
2022-11-09T05:02:07.298Z,1004.80
2022-11-09T05:03:07.288Z,1004.72
2022-11-09T05:04:07.419Z,1004.77
2022-11-09T05:05:07.277Z,1004.75
2022-11-09T05:06:07.259Z,1004.74
2022-11-09T05:07:07.306Z,1004.72
2022-11-09T05:08:07.245Z,1004.76
2022-11-09T05:09:07.220Z,1004.82
2022-11-09T05:10:07.248Z,1004.85
2022-11-09T05:11:07.200Z,1004.86
2022-11-09T05:12:07.182Z,1004.83
2022-11-09T05:13:07.221Z,1004.84
2022-11-09T05:14:07.169Z,1004.83
2022-11-09T05:15:07.178Z,1004.81
2022-11-09T05:16:07.139Z,1004.79
2022-11-09T05:17:07.151Z,1004.77
2022-11-09T05:18:07.127Z,1004.80
2022-11-09T05:19:07.113Z,1004.78
2022-11-09T05:20:07.137Z,1004.73
2022-11-09T05:21:07.098Z,1004.73
2022-11-09T05:22:07.083Z,1004.73
2022-11-09T05:23:07.054Z,1004.81
2022-11-09T05:24:07.064Z,1004.88
2022-11-09T05:25:07.086Z,1004.92
2022-11-09T05:26:07.045Z,1004.88
2022-11-09T05:27:07.030Z,1004.85
2022-11-09T05:28:08.461Z,1004.85
2022-11-09T05:29:07.044Z,1004.85
2022-11-09T05:30:07.011Z,1004.84
2022-11-09T05:31:06.981Z,1004.81
2022-11-09T05:32:06.952Z,1004.78
2022-11-09T05:33:06.964Z,1004.80
2022-11-09T05:34:06.987Z,1004.83
2022-11-09T05:35:06.936Z,1004.87
2022-11-09T05:36:06.932Z,1004.86
2022-11-09T05:37:06.894Z,1004.91
2022-11-09T05:38:06.888Z,1004.94
2022-11-09T05:39:06.865Z,1004.92
2022-11-09T05:40:06.917Z,1004.89
2022-11-09T05:41:06.851Z,1004.96
2022-11-09T05:42:06.865Z,1004.95
2022-11-09T05:43:06.839Z,1004.89
2022-11-09T05:44:06.838Z,1004.83
2022-11-09T05:45:35.503Z,1004.76
2022-11-09T05:46:07.800Z,1004.76
2022-11-09T05:47:06.796Z,1004.77
2022-11-09T05:48:06.772Z,1004.82
2022-11-09T05:49:06.759Z,1004.88
2022-11-09T05:50:06.810Z,1004.80
2022-11-09T05:51:06.762Z,1004.87
2022-11-09T05:52:06.738Z,1004.88
2022-11-09T05:53:06.712Z,1004.89
2022-11-09T05:54:06.724Z,1004.87
2022-11-09T05:55:06.740Z,1004.83
2022-11-09T05:56:06.695Z,1004.85
2022-11-09T05:57:06.687Z,1004.88
2022-11-09T05:58:06.685Z,1004.84
2022-11-09T05:59:06.688Z,1004.87
2022-11-09T06:00:10.842Z,1004.90
2022-11-09T06:01:06.645Z,1004.91
2022-11-09T06:02:06.660Z,1004.93
2022-11-09T06:03:06.622Z,1004.95
2022-11-09T06:04:06.618Z,1005.02
2022-11-09T06:05:06.612Z,1005.01
2022-11-09T06:06:08.680Z,1004.99
2022-11-09T06:07:06.650Z,1004.97
2022-11-09T06:08:06.567Z,1004.99
2022-11-09T06:09:06.531Z,1005.03
2022-11-09T06:10:06.557Z,1005.08
2022-11-09T06:11:06.521Z,1005.11
2022-11-09T06:12:06.494Z,1005.11
2022-11-09T06:13:06.489Z,1005.08
2022-11-09T06:14:06.513Z,1005.03
2022-11-09T06:15:06.502Z,1005.07
2022-11-09T06:16:06.459Z,1005.04
2022-11-09T06:17:06.456Z,1005.03
2022-11-09T06:18:06.436Z,1005.01
2022-11-09T06:19:06.443Z,1005.04
2022-11-09T06:20:06.483Z,1005.00
2022-11-09T06:21:06.421Z,1005.00
2022-11-09T06:22:06.400Z,1005.03
2022-11-09T06:23:06.395Z,1005.09
2022-11-09T06:24:06.388Z,1005.11
2022-11-09T06:25:06.433Z,1005.16
2022-11-09T06:26:06.375Z,1005.13
2022-11-09T06:27:06.338Z,1005.16
2022-11-09T06:28:06.360Z,1005.16
2022-11-09T06:29:06.321Z,1005.10
2022-11-09T06:30:06.346Z,1005.13
2022-11-09T06:31:06.294Z,1005.15
2022-11-09T06:32:06.296Z,1005.23
2022-11-09T06:33:06.279Z,1005.17
2022-11-09T06:34:06.272Z,1005.17
2022-11-09T06:35:06.257Z,1005.18
2022-11-09T06:36:06.243Z,1005.21
2022-11-09T06:37:06.235Z,1005.18
2022-11-09T06:38:06.235Z,1005.18
2022-11-09T06:39:06.211Z,1005.13
2022-11-09T06:40:06.219Z,1005.11
2022-11-09T06:41:06.178Z,1005.17
2022-11-09T06:42:06.230Z,1005.17
2022-11-09T06:43:06.149Z,1005.11
2022-11-09T06:44:06.171Z,1005.13
2022-11-09T06:45:06.179Z,1005.18
2022-11-09T06:46:06.178Z,1005.14
2022-11-09T06:47:06.114Z,1005.19
2022-11-09T06:48:06.097Z,1005.14
2022-11-09T06:49:06.093Z,1005.24
2022-11-09T06:50:06.117Z,1005.25
2022-11-09T06:51:06.071Z,1005.24
2022-11-09T06:52:06.051Z,1005.21
2022-11-09T06:53:06.030Z,1005.24
2022-11-09T06:54:06.033Z,1005.28
2022-11-09T06:55:06.040Z,1005.27
2022-11-09T06:56:06.020Z,1005.32
2022-11-09T06:57:05.998Z,1005.27
2022-11-09T06:58:05.997Z,1005.29
2022-11-09T06:59:05.970Z,1005.29
2022-11-09T07:00:06.008Z,1005.27
2022-11-09T07:01:06.051Z,1005.30
2022-11-09T07:02:05.965Z,1005.29
2022-11-09T07:03:05.935Z,1005.35
2022-11-09T07:04:05.936Z,1005.30
2022-11-09T07:05:05.955Z,1005.33
2022-11-09T07:06:05.901Z,1005.34
2022-11-09T07:07:05.972Z,1005.37
2022-11-09T07:08:05.878Z,1005.41
2022-11-09T07:09:05.893Z,1005.42
2022-11-09T07:10:05.908Z,1005.44
2022-11-09T07:11:05.865Z,1005.42
2022-11-09T07:12:05.847Z,1005.44
2022-11-09T07:13:05.824Z,1005.42
2022-11-09T07:14:05.848Z,1005.42
2022-11-09T07:15:05.821Z,1005.42
2022-11-09T07:16:05.821Z,1005.44
2022-11-09T07:17:05.783Z,1005.45
2022-11-09T07:18:05.784Z,1005.46
2022-11-09T07:19:05.753Z,1005.46
2022-11-09T07:20:05.799Z,1005.50
2022-11-09T07:21:08.837Z,1005.53
2022-11-09T07:22:06.723Z,1005.49
2022-11-09T07:23:05.709Z,1005.42
2022-11-09T07:24:05.698Z,1005.42
2022-11-09T07:25:05.724Z,1005.42
2022-11-09T07:26:05.681Z,1005.43
2022-11-09T07:27:05.663Z,1005.40
2022-11-09T07:28:05.667Z,1005.41
2022-11-09T07:29:05.649Z,1005.41
2022-11-09T07:30:05.656Z,1005.41
2022-11-09T07:31:05.615Z,1005.40
2022-11-09T07:32:05.633Z,1005.40
2022-11-09T07:33:10.320Z,1005.43
2022-11-09T07:34:06.599Z,1005.40
2022-11-09T07:35:05.601Z,1005.41
2022-11-09T07:36:05.553Z,1005.41
2022-11-09T07:37:05.568Z,1005.42
2022-11-09T07:38:05.553Z,1005.43
2022-11-09T07:39:05.524Z,1005.39
2022-11-09T07:40:05.663Z,1005.42
2022-11-09T07:41:05.509Z,1005.38
2022-11-09T07:42:05.502Z,1005.41
2022-11-09T07:43:05.494Z,1005.40
2022-11-09T07:44:05.467Z,1005.36
2022-11-09T07:45:05.490Z,1005.35
2022-11-09T07:46:05.457Z,1005.30
2022-11-09T07:47:05.446Z,1005.32
2022-11-09T07:48:05.430Z,1005.37
2022-11-09T07:49:05.407Z,1005.34
2022-11-09T07:50:05.427Z,1005.40
2022-11-09T07:51:05.378Z,1005.41
2022-11-09T07:52:05.381Z,1005.49
2022-11-09T07:53:05.393Z,1005.51
2022-11-09T07:54:05.385Z,1005.54
2022-11-09T07:55:05.386Z,1005.55
2022-11-09T07:56:05.338Z,1005.52
2022-11-09T07:57:05.337Z,1005.52
2022-11-09T07:58:05.314Z,1005.54
2022-11-09T07:59:05.308Z,1005.55
2022-11-09T08:00:05.326Z,1005.54
2022-11-09T08:01:05.287Z,1005.57
2022-11-09T08:02:05.330Z,1005.57
2022-11-09T08:03:05.242Z,1005.53
2022-11-09T08:04:05.250Z,1005.57
2022-11-09T08:05:05.265Z,1005.56
2022-11-09T08:06:05.216Z,1005.58
2022-11-09T08:07:05.249Z,1005.59
2022-11-09T08:08:05.249Z,1005.53
2022-11-09T08:09:05.178Z,1005.51
2022-11-09T08:10:05.217Z,1005.52
2022-11-09T08:11:05.169Z,1005.48
2022-11-09T08:12:05.178Z,1005.41
2022-11-09T08:13:05.156Z,1005.51
2022-11-09T08:14:05.120Z,1005.53
2022-11-09T08:15:05.135Z,1005.50
2022-11-09T08:16:05.129Z,1005.51
2022-11-09T08:17:05.078Z,1005.54
2022-11-09T08:18:05.088Z,1005.55
2022-11-09T08:19:05.070Z,1005.62
2022-11-09T08:20:05.067Z,1005.61
2022-11-09T08:21:05.090Z,1005.59
2022-11-09T08:22:05.057Z,1005.62
2022-11-09T08:23:05.234Z,1005.65
2022-11-09T08:24:05.019Z,1005.62
2022-11-09T08:25:05.013Z,1005.61
2022-11-09T08:26:05.053Z,1005.63
2022-11-09T08:27:05.000Z,1005.61
2022-11-09T08:28:04.967Z,1005.62
2022-11-09T08:29:04.945Z,1005.66
2022-11-09T08:30:04.957Z,1005.66
2022-11-09T08:31:04.971Z,1005.71
2022-11-09T08:32:04.942Z,1005.69
2022-11-09T08:33:04.907Z,1005.70
2022-11-09T08:34:04.931Z,1005.70
2022-11-09T08:35:04.894Z,1005.69
2022-11-09T08:36:04.927Z,1005.68
2022-11-09T08:37:04.873Z,1005.65
2022-11-09T08:38:04.846Z,1005.65
2022-11-09T08:39:04.849Z,1005.71
2022-11-09T08:40:04.816Z,1005.74
2022-11-09T08:41:09.268Z,1005.81
2022-11-09T08:42:05.812Z,1005.83
2022-11-09T08:43:04.778Z,1005.80
2022-11-09T08:44:04.764Z,1005.83
2022-11-09T08:45:04.785Z,1005.87
2022-11-09T08:46:04.764Z,1005.94
2022-11-09T08:47:04.761Z,1005.93
2022-11-09T08:48:04.763Z,1005.94
2022-11-09T08:49:04.738Z,1005.93
2022-11-09T08:50:04.726Z,1005.96
2022-11-09T08:51:04.739Z,1005.97
2022-11-09T08:52:04.699Z,1005.94
2022-11-09T08:53:04.677Z,1005.90
2022-11-09T08:54:04.685Z,1005.91
2022-11-09T08:55:04.665Z,1005.87
2022-11-09T08:56:04.677Z,1005.86
2022-11-09T08:57:04.638Z,1005.90
2022-11-09T08:58:04.643Z,1005.90
2022-11-09T08:59:04.634Z,1005.92
2022-11-09T09:00:04.619Z,1005.89
2022-11-09T09:01:04.623Z,1005.91
2022-11-09T09:02:04.679Z,1005.91
2022-11-09T09:03:04.579Z,1005.90
2022-11-09T09:04:04.554Z,1005.92
2022-11-09T09:05:04.543Z,1005.91
2022-11-09T09:06:04.559Z,1005.92
2022-11-09T09:07:04.611Z,1005.95
2022-11-09T09:08:04.522Z,1005.98
2022-11-09T09:09:04.501Z,1006.11
2022-11-09T09:10:04.525Z,1006.11
2022-11-09T09:11:04.500Z,1006.16
2022-11-09T09:12:04.452Z,1006.16
2022-11-09T09:13:04.475Z,1006.16
2022-11-09T09:14:04.446Z,1006.22
2022-11-09T09:15:04.449Z,1006.21
2022-11-09T09:16:04.451Z,1006.21
2022-11-09T09:17:04.429Z,1006.24
2022-11-09T09:18:04.415Z,1006.21
2022-11-09T09:19:04.379Z,1006.18
2022-11-09T09:20:04.358Z,1006.20
2022-11-09T09:21:04.392Z,1006.25
2022-11-09T09:22:04.338Z,1006.22
2022-11-09T09:23:04.330Z,1006.22
2022-11-09T09:24:04.326Z,1006.19
2022-11-09T09:25:04.315Z,1006.19
2022-11-09T09:26:04.390Z,1006.21
2022-11-09T09:27:04.296Z,1006.22
2022-11-09T09:28:04.277Z,1006.22
2022-11-09T09:29:04.278Z,1006.30
2022-11-09T09:30:04.245Z,1006.25
2022-11-09T09:31:04.292Z,1006.23
2022-11-09T09:32:04.245Z,1006.20
2022-11-09T09:33:04.221Z,1006.12
2022-11-09T09:34:04.217Z,1006.16
2022-11-09T09:35:04.204Z,1006.18
2022-11-09T09:36:04.247Z,1006.19
2022-11-09T09:37:04.188Z,1006.19
2022-11-09T09:38:04.178Z,1006.18
2022-11-09T09:39:04.160Z,1006.22
2022-11-09T09:40:04.142Z,1006.18
2022-11-09T09:41:04.151Z,1006.20
2022-11-09T09:42:04.124Z,1006.14
2022-11-09T09:43:04.106Z,1006.11
2022-11-09T09:44:04.102Z,1006.18
2022-11-09T09:45:04.114Z,1006.18
2022-11-09T09:46:04.107Z,1006.18
2022-11-09T09:47:04.064Z,1006.20
2022-11-09T09:48:04.064Z,1006.13
2022-11-09T09:49:04.038Z,1006.14
2022-11-09T09:50:04.081Z,1006.13
2022-11-09T09:51:04.072Z,1006.13
2022-11-09T09:52:04.032Z,1006.08
2022-11-09T09:53:23.180Z,1006.04
2022-11-09T09:54:04.983Z,1006.02
2022-11-09T09:55:03.983Z,1006.01
2022-11-09T09:56:03.996Z,1006.04
2022-11-09T09:57:03.947Z,1006.02
2022-11-09T09:58:03.930Z,1006.01
2022-11-09T09:59:03.935Z,1006.07
2022-11-09T10:00:03.916Z,1006.06
2022-11-09T10:01:03.901Z,1006.01
2022-11-09T10:02:03.926Z,1006.00
2022-11-09T10:03:03.891Z,1005.97
2022-11-09T10:04:03.948Z,1005.99
2022-11-09T10:05:03.861Z,1006.01
2022-11-09T10:06:03.847Z,1006.08
2022-11-09T10:07:03.924Z,1006.01
2022-11-09T10:08:03.829Z,1006.07
2022-11-09T10:09:03.818Z,1006.08
2022-11-09T10:10:03.797Z,1006.10
2022-11-09T10:11:03.812Z,1006.14
2022-11-09T10:12:03.837Z,1006.14
2022-11-09T10:13:03.759Z,1006.18
2022-11-09T10:14:03.770Z,1006.18
2022-11-09T10:15:03.754Z,1006.25
2022-11-09T10:16:03.779Z,1006.25
2022-11-09T10:17:03.722Z,1006.30
2022-11-09T10:18:03.713Z,1006.24
2022-11-09T10:19:03.705Z,1006.25
2022-11-09T10:20:03.678Z,1006.19
2022-11-09T10:21:03.690Z,1006.22
2022-11-09T10:22:03.715Z,1006.17
2022-11-09T10:23:03.673Z,1006.23
2022-11-09T10:24:03.662Z,1006.18
2022-11-09T10:25:32.125Z,1006.21
2022-11-09T10:26:06.892Z,1006.22
2022-11-09T10:27:03.628Z,1006.20
2022-11-09T10:28:03.582Z,1006.21
2022-11-09T10:29:16.219Z,1006.17
2022-11-09T10:30:04.550Z,1006.21
2022-11-09T10:31:03.563Z,1006.15
2022-11-09T10:32:03.581Z,1006.16
2022-11-09T10:33:03.552Z,1006.15
2022-11-09T10:34:03.517Z,1006.13
2022-11-09T10:35:03.550Z,1006.12
2022-11-09T10:36:07.993Z,1006.11
2022-11-09T10:37:03.530Z,1006.14
2022-11-09T10:38:03.486Z,1006.17
2022-11-09T10:39:03.482Z,1006.19
2022-11-09T10:40:03.455Z,1006.19
2022-11-09T10:41:03.458Z,1006.18
2022-11-09T10:42:03.466Z,1006.17
2022-11-09T10:43:03.419Z,1006.13
2022-11-09T10:44:03.408Z,1006.11
2022-11-09T10:45:03.415Z,1006.11
2022-11-09T10:46:03.370Z,1006.10
2022-11-09T10:47:03.417Z,1006.18
2022-11-09T10:48:03.361Z,1006.22
2022-11-09T10:49:03.366Z,1006.21
2022-11-09T10:50:03.337Z,1006.20
2022-11-09T10:51:03.350Z,1006.18
2022-11-09T10:52:03.343Z,1006.20
2022-11-09T10:53:03.312Z,1006.18
2022-11-09T10:54:03.277Z,1006.18
2022-11-09T10:55:03.289Z,1006.08
2022-11-09T10:56:03.278Z,1006.06
2022-11-09T10:57:07.048Z,1005.98
2022-11-09T10:58:03.272Z,1005.97
2022-11-09T10:59:03.249Z,1005.99
2022-11-09T11:00:03.258Z,1006.02
2022-11-09T11:01:03.224Z,1005.96
2022-11-09T11:02:03.275Z,1005.94
2022-11-09T11:03:03.200Z,1005.91
2022-11-09T11:04:03.178Z,1005.99
2022-11-09T11:05:03.221Z,1005.97
2022-11-09T11:06:03.179Z,1005.89
2022-11-09T11:07:03.230Z,1005.89
2022-11-09T11:08:03.150Z,1005.86
2022-11-09T11:09:03.134Z,1005.84
2022-11-09T11:10:03.122Z,1005.81
2022-11-09T11:11:27.326Z,1005.81
2022-11-09T11:12:04.136Z,1005.85
2022-11-09T11:13:03.070Z,1005.84
2022-11-09T11:14:03.075Z,1005.85
2022-11-09T11:15:03.046Z,1005.85
2022-11-09T11:16:03.039Z,1005.81
2022-11-09T11:17:03.062Z,1005.77
2022-11-09T11:18:03.026Z,1005.76
2022-11-09T11:19:03.030Z,1005.74
2022-11-09T11:20:02.999Z,1005.74
2022-11-09T11:21:02.999Z,1005.76
2022-11-09T11:22:03.036Z,1005.72
2022-11-09T11:23:02.956Z,1005.69
2022-11-09T11:24:02.960Z,1005.68
2022-11-09T11:25:02.947Z,1005.65
2022-11-09T11:26:02.934Z,1005.61
2022-11-09T11:27:06.616Z,1005.62
2022-11-09T11:28:03.928Z,1005.62
2022-11-09T11:29:02.908Z,1005.61
2022-11-09T11:30:02.879Z,1005.61
2022-11-09T11:31:02.873Z,1005.65
2022-11-09T11:32:02.904Z,1005.66
2022-11-09T11:33:02.876Z,1005.59
2022-11-09T11:34:02.916Z,1005.59
2022-11-09T11:35:02.882Z,1005.55
2022-11-09T11:36:02.821Z,1005.55
2022-11-09T11:37:02.849Z,1005.54
2022-11-09T11:38:02.800Z,1005.50
2022-11-09T11:39:02.818Z,1005.48
2022-11-09T11:40:02.789Z,1005.46
2022-11-09T11:41:02.780Z,1005.42
2022-11-09T11:42:02.785Z,1005.46
2022-11-09T11:43:02.764Z,1005.48
2022-11-09T11:44:02.709Z,1005.48
2022-11-09T11:45:33.483Z,1005.40
2022-11-09T11:46:03.696Z,1005.43
2022-11-09T11:47:02.725Z,1005.39
2022-11-09T11:48:02.675Z,1005.42
2022-11-09T11:49:02.675Z,1005.38
2022-11-09T11:50:02.679Z,1005.42
2022-11-09T11:51:02.639Z,1005.44
2022-11-09T11:52:02.659Z,1005.36
2022-11-09T11:53:02.635Z,1005.39
2022-11-09T11:54:02.623Z,1005.40
2022-11-09T11:55:02.610Z,1005.34
2022-11-09T11:56:02.616Z,1005.37
2022-11-09T11:57:02.589Z,1005.36
2022-11-09T11:58:02.577Z,1005.32
2022-11-09T11:59:02.555Z,1005.33
2022-11-09T12:00:02.546Z,1005.36
2022-11-09T12:01:02.576Z,1005.31
2022-11-09T12:02:02.533Z,1005.34
2022-11-09T12:03:02.596Z,1005.28
2022-11-09T12:04:02.493Z,1005.33
2022-11-09T12:05:02.505Z,1005.37